sensor_id;sensor_type;location;lat;lon;timestamp;P1;durP1;ratioP1;P2;durP2;ratioP2
840;SDS011;406;48.566;13.450;2024-01-30T00:00:34;23.80;;;16.08;;
840;SDS011;406;48.566;13.450;2024-01-30T00:03:00;27.33;;;17.50;;
840;SDS011;406;48.566;13.450;2024-01-30T00:05:27;25.90;;;15.30;;
840;SDS011;406;48.566;13.450;2024-01-30T00:07:54;27.13;;;16.10;;
840;SDS011;406;48.566;13.450;2024-01-30T00:10:21;31.80;;;17.77;;
840;SDS011;406;48.566;13.450;2024-01-30T00:12:48;23.83;;;15.10;;
840;SDS011;406;48.566;13.450;2024-01-30T00:15:14;26.52;;;16.10;;
840;SDS011;406;48.566;13.450;2024-01-30T00:17:41;25.05;;;17.95;;
840;SDS011;406;48.566;13.450;2024-01-30T00:20:08;24.55;;;17.73;;
840;SDS011;406;48.566;13.450;2024-01-30T00:22:36;24.10;;;17.08;;
840;SDS011;406;48.566;13.450;2024-01-30T00:25:02;26.30;;;18.55;;
840;SDS011;406;48.566;13.450;2024-01-30T00:27:29;26.90;;;17.23;;
840;SDS011;406;48.566;13.450;2024-01-30T00:29:56;23.75;;;17.80;;
840;SDS011;406;48.566;13.450;2024-01-30T00:32:22;24.95;;;16.02;;
840;SDS011;406;48.566;13.450;2024-01-30T00:34:49;25.88;;;18.90;;
840;SDS011;406;48.566;13.450;2024-01-30T00:37:16;25.05;;;18.33;;
840;SDS011;406;48.566;13.450;2024-01-30T00:39:43;25.33;;;17.58;;
840;SDS011;406;48.566;13.450;2024-01-30T00:42:10;24.50;;;17.75;;
840;SDS011;406;48.566;13.450;2024-01-30T00:44:36;27.50;;;16.48;;
840;SDS011;406;48.566;13.450;2024-01-30T00:47:06;26.20;;;18.45;;
840;SDS011;406;48.566;13.450;2024-01-30T00:49:32;24.20;;;18.05;;
840;SDS011;406;48.566;13.450;2024-01-30T00:51:59;25.48;;;17.13;;
840;SDS011;406;48.566;13.450;2024-01-30T00:54:26;21.92;;;17.25;;
840;SDS011;406;48.566;13.450;2024-01-30T00:56:53;24.48;;;17.50;;
840;SDS011;406;48.566;13.450;2024-01-30T00:59:19;24.80;;;17.33;;
840;SDS011;406;48.566;13.450;2024-01-30T01:01:46;25.23;;;19.13;;
840;SDS011;406;48.566;13.450;2024-01-30T01:04:12;26.02;;;18.98;;
840;SDS011;406;48.566;13.450;2024-01-30T01:06:39;25.15;;;18.75;;
840;SDS011;406;48.566;13.450;2024-01-30T01:09:09;26.77;;;19.52;;
840;SDS011;406;48.566;13.450;2024-01-30T01:11:36;27.60;;;18.40;;
840;SDS011;406;48.566;13.450;2024-01-30T01:14:04;23.27;;;16.00;;
840;SDS011;406;48.566;13.450;2024-01-30T01:16:31;23.90;;;15.82;;
840;SDS011;406;48.566;13.450;2024-01-30T01:18:57;23.38;;;16.63;;
840;SDS011;406;48.566;13.450;2024-01-30T01:21:24;26.45;;;15.98;;
840;SDS011;406;48.566;13.450;2024-01-30T01:23:50;23.55;;;17.02;;
840;SDS011;406;48.566;13.450;2024-01-30T01:26:17;27.08;;;17.75;;
840;SDS011;406;48.566;13.450;2024-01-30T01:28:44;23.23;;;17.17;;
840;SDS011;406;48.566;13.450;2024-01-30T01:31:10;26.73;;;15.80;;
840;SDS011;406;48.566;13.450;2024-01-30T01:33:38;23.60;;;17.35;;
840;SDS011;406;48.566;13.450;2024-01-30T01:36:04;23.73;;;17.90;;
840;SDS011;406;48.566;13.450;2024-01-30T01:38:32;25.75;;;17.58;;
840;SDS011;406;48.566;13.450;2024-01-30T01:40:59;23.67;;;18.30;;
840;SDS011;406;48.566;13.450;2024-01-30T01:43:25;23.48;;;16.77;;
840;SDS011;406;48.566;13.450;2024-01-30T01:45:52;23.70;;;16.63;;
840;SDS011;406;48.566;13.450;2024-01-30T01:48:19;21.55;;;16.85;;
840;SDS011;406;48.566;13.450;2024-01-30T01:50:45;29.65;;;18.73;;
840;SDS011;406;48.566;13.450;2024-01-30T01:53:12;21.27;;;17.70;;
840;SDS011;406;48.566;13.450;2024-01-30T01:55:39;26.38;;;17.83;;
840;SDS011;406;48.566;13.450;2024-01-30T01:58:05;24.90;;;17.40;;
840;SDS011;406;48.566;13.450;2024-01-30T02:00:35;26.92;;;17.10;;
840;SDS011;406;48.566;13.450;2024-01-30T02:03:05;24.38;;;18.63;;
840;SDS011;406;48.566;13.450;2024-01-30T02:05:33;23.48;;;16.25;;
840;SDS011;406;48.566;13.450;2024-01-30T02:07:59;28.13;;;17.20;;
840;SDS011;406;48.566;13.450;2024-01-30T02:10:26;26.83;;;20.40;;
840;SDS011;406;48.566;13.450;2024-01-30T02:12:53;22.85;;;15.85;;
840;SDS011;406;48.566;13.450;2024-01-30T02:15:19;28.38;;;17.83;;
840;SDS011;406;48.566;13.450;2024-01-30T02:17:46;25.38;;;20.00;;
840;SDS011;406;48.566;13.450;2024-01-30T02:20:12;21.48;;;16.75;;
840;SDS011;406;48.566;13.450;2024-01-30T02:22:40;26.10;;;15.68;;
840;SDS011;406;48.566;13.450;2024-01-30T02:25:07;25.67;;;16.50;;
840;SDS011;406;48.566;13.450;2024-01-30T02:27:34;25.65;;;19.00;;
840;SDS011;406;48.566;13.450;2024-01-30T02:30:00;25.30;;;19.08;;
840;SDS011;406;48.566;13.450;2024-01-30T02:32:27;26.92;;;19.35;;
840;SDS011;406;48.566;13.450;2024-01-30T02:34:53;28.27;;;20.77;;
840;SDS011;406;48.566;13.450;2024-01-30T02:37:20;37.05;;;22.55;;
840;SDS011;406;48.566;13.450;2024-01-30T02:39:46;38.38;;;21.70;;
840;SDS011;406;48.566;13.450;2024-01-30T02:42:13;32.63;;;19.50;;
840;SDS011;406;48.566;13.450;2024-01-30T02:44:40;26.20;;;19.10;;
840;SDS011;406;48.566;13.450;2024-01-30T02:47:06;31.52;;;20.45;;
840;SDS011;406;48.566;13.450;2024-01-30T02:49:33;32.33;;;20.75;;
840;SDS011;406;48.566;13.450;2024-01-30T02:51:59;28.50;;;20.52;;
840;SDS011;406;48.566;13.450;2024-01-30T02:54:26;29.80;;;19.42;;
840;SDS011;406;48.566;13.450;2024-01-30T02:56:52;25.10;;;17.77;;
840;SDS011;406;48.566;13.450;2024-01-30T02:59:19;27.05;;;17.88;;
840;SDS011;406;48.566;13.450;2024-01-30T03:01:46;26.33;;;19.08;;
840;SDS011;406;48.566;13.450;2024-01-30T03:04:13;25.92;;;17.73;;
840;SDS011;406;48.566;13.450;2024-01-30T03:06:44;24.20;;;18.88;;
840;SDS011;406;48.566;13.450;2024-01-30T03:09:12;25.92;;;20.10;;
840;SDS011;406;48.566;13.450;2024-01-30T03:11:39;29.25;;;20.27;;
840;SDS011;406;48.566;13.450;2024-01-30T03:14:06;28.30;;;20.58;;
840;SDS011;406;48.566;13.450;2024-01-30T03:16:32;25.20;;;18.33;;
840;SDS011;406;48.566;13.450;2024-01-30T03:18:59;34.42;;;20.10;;
840;SDS011;406;48.566;13.450;2024-01-30T03:21:27;27.98;;;19.77;;
840;SDS011;406;48.566;13.450;2024-01-30T03:23:54;29.52;;;19.77;;
840;SDS011;406;48.566;13.450;2024-01-30T03:26:20;28.80;;;20.05;;
840;SDS011;406;48.566;13.450;2024-01-30T03:28:46;31.15;;;22.92;;
840;SDS011;406;48.566;13.450;2024-01-30T03:31:14;28.92;;;19.65;;
840;SDS011;406;48.566;13.450;2024-01-30T03:33:41;28.80;;;20.90;;
840;SDS011;406;48.566;13.450;2024-01-30T03:36:08;29.90;;;20.67;;
840;SDS011;406;48.566;13.450;2024-01-30T03:38:35;27.83;;;20.42;;
840;SDS011;406;48.566;13.450;2024-01-30T03:41:02;24.55;;;19.02;;
840;SDS011;406;48.566;13.450;2024-01-30T03:43:29;26.33;;;20.35;;
840;SDS011;406;48.566;13.450;2024-01-30T03:45:55;31.42;;;19.17;;
840;SDS011;406;48.566;13.450;2024-01-30T03:48:22;32.08;;;21.45;;
840;SDS011;406;48.566;13.450;2024-01-30T03:50:48;27.13;;;19.45;;
840;SDS011;406;48.566;13.450;2024-01-30T03:53:15;27.98;;;20.55;;
840;SDS011;406;48.566;13.450;2024-01-30T03:55:41;30.55;;;18.73;;
840;SDS011;406;48.566;13.450;2024-01-30T03:58:08;25.35;;;17.13;;
840;SDS011;406;48.566;13.450;2024-01-30T04:00:34;25.27;;;19.00;;
840;SDS011;406;48.566;13.450;2024-01-30T04:03:01;25.15;;;18.17;;
840;SDS011;406;48.566;13.450;2024-01-30T04:05:28;31.30;;;18.60;;
840;SDS011;406;48.566;13.450;2024-01-30T04:07:55;32.75;;;18.92;;
840;SDS011;406;48.566;13.450;2024-01-30T04:10:21;33.85;;;17.85;;
840;SDS011;406;48.566;13.450;2024-01-30T04:12:48;23.23;;;18.90;;
840;SDS011;406;48.566;13.450;2024-01-30T04:15:15;25.27;;;19.05;;
840;SDS011;406;48.566;13.450;2024-01-30T04:17:42;22.90;;;19.15;;
840;SDS011;406;48.566;13.450;2024-01-30T04:20:13;30.20;;;19.27;;
840;SDS011;406;48.566;13.450;2024-01-30T04:22:44;24.77;;;18.38;;
840;SDS011;406;48.566;13.450;2024-01-30T04:25:14;28.67;;;21.38;;
840;SDS011;406;48.566;13.450;2024-01-30T04:27:41;28.33;;;18.27;;
840;SDS011;406;48.566;13.450;2024-01-30T04:30:08;28.90;;;22.35;;
840;SDS011;406;48.566;13.450;2024-01-30T04:32:35;28.58;;;19.33;;
840;SDS011;406;48.566;13.450;2024-01-30T04:35:02;31.98;;;21.00;;
840;SDS011;406;48.566;13.450;2024-01-30T04:37:35;27.90;;;20.27;;
840;SDS011;406;48.566;13.450;2024-01-30T04:40:01;33.85;;;21.73;;
840;SDS011;406;48.566;13.450;2024-01-30T04:42:29;28.85;;;19.33;;
840;SDS011;406;48.566;13.450;2024-01-30T04:44:55;29.42;;;20.52;;
840;SDS011;406;48.566;13.450;2024-01-30T04:47:22;92.72;;;30.05;;
840;SDS011;406;48.566;13.450;2024-01-30T04:49:50;87.20;;;25.98;;
840;SDS011;406;48.566;13.450;2024-01-30T04:52:17;149.05;;;33.83;;
840;SDS011;406;48.566;13.450;2024-01-30T04:54:44;182.20;;;37.42;;
840;SDS011;406;48.566;13.450;2024-01-30T04:57:10;90.10;;;29.73;;
840;SDS011;406;48.566;13.450;2024-01-30T04:59:38;64.65;;;27.40;;
840;SDS011;406;48.566;13.450;2024-01-30T05:02:05;36.17;;;24.55;;
840;SDS011;406;48.566;13.450;2024-01-30T05:04:31;38.85;;;23.83;;
840;SDS011;406;48.566;13.450;2024-01-30T05:06:58;42.83;;;26.50;;
840;SDS011;406;48.566;13.450;2024-01-30T05:09:25;34.65;;;22.95;;
840;SDS011;406;48.566;13.450;2024-01-30T05:11:51;28.65;;;20.05;;
840;SDS011;406;48.566;13.450;2024-01-30T05:14:18;37.20;;;25.13;;
840;SDS011;406;48.566;13.450;2024-01-30T05:16:44;29.00;;;20.77;;
840;SDS011;406;48.566;13.450;2024-01-30T05:19:13;31.77;;;23.38;;
840;SDS011;406;48.566;13.450;2024-01-30T05:21:41;30.90;;;24.02;;
840;SDS011;406;48.566;13.450;2024-01-30T05:24:07;32.75;;;22.80;;
840;SDS011;406;48.566;13.450;2024-01-30T05:26:36;33.50;;;25.50;;
840;SDS011;406;48.566;13.450;2024-01-30T05:29:02;30.48;;;20.17;;
840;SDS011;406;48.566;13.450;2024-01-30T05:31:29;29.70;;;20.67;;
840;SDS011;406;48.566;13.450;2024-01-30T05:33:56;31.45;;;22.85;;
840;SDS011;406;48.566;13.450;2024-01-30T05:36:22;28.38;;;22.05;;
840;SDS011;406;48.566;13.450;2024-01-30T05:38:49;26.65;;;21.52;;
840;SDS011;406;48.566;13.450;2024-01-30T05:41:16;28.70;;;18.73;;
840;SDS011;406;48.566;13.450;2024-01-30T05:43:42;31.45;;;21.20;;
840;SDS011;406;48.566;13.450;2024-01-30T05:46:09;26.08;;;19.50;;
840;SDS011;406;48.566;13.450;2024-01-30T05:48:35;28.00;;;19.13;;
840;SDS011;406;48.566;13.450;2024-01-30T05:51:02;28.95;;;18.33;;
840;SDS011;406;48.566;13.450;2024-01-30T05:53:30;25.88;;;18.10;;
840;SDS011;406;48.566;13.450;2024-01-30T05:55:57;22.90;;;19.20;;
840;SDS011;406;48.566;13.450;2024-01-30T05:58:23;24.58;;;18.10;;
840;SDS011;406;48.566;13.450;2024-01-30T06:00:50;26.52;;;20.00;;
840;SDS011;406;48.566;13.450;2024-01-30T06:03:17;28.08;;;21.02;;
840;SDS011;406;48.566;13.450;2024-01-30T06:05:43;27.77;;;19.75;;
840;SDS011;406;48.566;13.450;2024-01-30T06:08:10;31.50;;;21.40;;
840;SDS011;406;48.566;13.450;2024-01-30T06:10:36;26.58;;;19.48;;
840;SDS011;406;48.566;13.450;2024-01-30T06:13:03;27.73;;;19.88;;
840;SDS011;406;48.566;13.450;2024-01-30T06:15:30;27.85;;;20.73;;
840;SDS011;406;48.566;13.450;2024-01-30T06:17:56;28.83;;;20.38;;
840;SDS011;406;48.566;13.450;2024-01-30T06:20:23;34.42;;;21.20;;
840;SDS011;406;48.566;13.450;2024-01-30T06:22:50;28.70;;;22.27;;
840;SDS011;406;48.566;13.450;2024-01-30T06:25:16;27.75;;;22.67;;
840;SDS011;406;48.566;13.450;2024-01-30T06:27:43;30.25;;;20.50;;
840;SDS011;406;48.566;13.450;2024-01-30T06:30:10;27.15;;;19.83;;
840;SDS011;406;48.566;13.450;2024-01-30T06:32:37;28.60;;;22.02;;
840;SDS011;406;48.566;13.450;2024-01-30T06:35:05;32.60;;;20.45;;
840;SDS011;406;48.566;13.450;2024-01-30T06:37:32;33.72;;;22.15;;
840;SDS011;406;48.566;13.450;2024-01-30T06:39:58;34.85;;;22.45;;
840;SDS011;406;48.566;13.450;2024-01-30T06:42:25;29.00;;;19.95;;
840;SDS011;406;48.566;13.450;2024-01-30T06:44:52;30.75;;;19.25;;
840;SDS011;406;48.566;13.450;2024-01-30T06:47:18;28.63;;;20.38;;
840;SDS011;406;48.566;13.450;2024-01-30T06:49:45;26.92;;;20.23;;
840;SDS011;406;48.566;13.450;2024-01-30T06:52:12;27.60;;;21.65;;
840;SDS011;406;48.566;13.450;2024-01-30T06:54:38;29.52;;;20.38;;
840;SDS011;406;48.566;13.450;2024-01-30T06:57:06;35.30;;;21.17;;
840;SDS011;406;48.566;13.450;2024-01-30T06:59:38;28.30;;;18.27;;
840;SDS011;406;48.566;13.450;2024-01-30T07:02:10;31.10;;;22.92;;
840;SDS011;406;48.566;13.450;2024-01-30T07:04:37;29.35;;;18.52;;
840;SDS011;406;48.566;13.450;2024-01-30T07:07:05;30.55;;;20.98;;
840;SDS011;406;48.566;13.450;2024-01-30T07:09:32;27.10;;;21.45;;
840;SDS011;406;48.566;13.450;2024-01-30T07:12:00;31.35;;;19.90;;
840;SDS011;406;48.566;13.450;2024-01-30T07:14:26;29.48;;;20.48;;
840;SDS011;406;48.566;13.450;2024-01-30T07:16:53;34.65;;;22.58;;
840;SDS011;406;48.566;13.450;2024-01-30T07:19:19;35.50;;;24.42;;
840;SDS011;406;48.566;13.450;2024-01-30T07:21:46;30.73;;;20.80;;
840;SDS011;406;48.566;13.450;2024-01-30T07:24:13;28.00;;;20.45;;
840;SDS011;406;48.566;13.450;2024-01-30T07:26:39;30.92;;;21.75;;
840;SDS011;406;48.566;13.450;2024-01-30T07:29:06;34.22;;;22.48;;
840;SDS011;406;48.566;13.450;2024-01-30T07:31:32;28.85;;;22.30;;
840;SDS011;406;48.566;13.450;2024-01-30T07:34:00;28.45;;;22.08;;
840;SDS011;406;48.566;13.450;2024-01-30T07:36:26;29.48;;;23.42;;
840;SDS011;406;48.566;13.450;2024-01-30T07:38:53;33.47;;;23.60;;
840;SDS011;406;48.566;13.450;2024-01-30T07:41:21;30.17;;;21.77;;
840;SDS011;406;48.566;13.450;2024-01-30T07:43:47;30.52;;;22.83;;
840;SDS011;406;48.566;13.450;2024-01-30T07:46:14;39.05;;;22.38;;
840;SDS011;406;48.566;13.450;2024-01-30T07:48:40;31.58;;;22.17;;
840;SDS011;406;48.566;13.450;2024-01-30T07:51:07;32.60;;;22.38;;
840;SDS011;406;48.566;13.450;2024-01-30T07:53:33;31.83;;;22.48;;
840;SDS011;406;48.566;13.450;2024-01-30T07:56:00;35.38;;;22.85;;
840;SDS011;406;48.566;13.450;2024-01-30T07:58:26;38.88;;;24.30;;
840;SDS011;406;48.566;13.450;2024-01-30T08:00:54;34.72;;;25.75;;
840;SDS011;406;48.566;13.450;2024-01-30T08:03:20;32.58;;;24.27;;
840;SDS011;406;48.566;13.450;2024-01-30T08:05:47;34.53;;;22.88;;
840;SDS011;406;48.566;13.450;2024-01-30T08:08:13;39.50;;;23.73;;
840;SDS011;406;48.566;13.450;2024-01-30T08:10:40;32.95;;;23.02;;
840;SDS011;406;48.566;13.450;2024-01-30T08:13:06;38.08;;;25.98;;
840;SDS011;406;48.566;13.450;2024-01-30T08:15:35;33.65;;;25.90;;
840;SDS011;406;48.566;13.450;2024-01-30T08:18:01;36.42;;;23.42;;
840;SDS011;406;48.566;13.450;2024-01-30T08:20:28;32.55;;;23.67;;
840;SDS011;406;48.566;13.450;2024-01-30T08:22:54;35.97;;;23.67;;
840;SDS011;406;48.566;13.450;2024-01-30T08:25:21;34.55;;;22.63;;
840;SDS011;406;48.566;13.450;2024-01-30T08:27:48;33.58;;;23.48;;
840;SDS011;406;48.566;13.450;2024-01-30T08:30:14;35.22;;;23.55;;
840;SDS011;406;48.566;13.450;2024-01-30T08:32:41;34.47;;;22.95;;
840;SDS011;406;48.566;13.450;2024-01-30T08:35:08;34.78;;;24.63;;
840;SDS011;406;48.566;13.450;2024-01-30T08:37:35;36.33;;;22.45;;
840;SDS011;406;48.566;13.450;2024-01-30T08:40:03;35.33;;;22.75;;
840;SDS011;406;48.566;13.450;2024-01-30T08:42:31;34.72;;;21.52;;
840;SDS011;406;48.566;13.450;2024-01-30T08:44:57;35.25;;;25.60;;
840;SDS011;406;48.566;13.450;2024-01-30T08:47:24;35.28;;;24.33;;
840;SDS011;406;48.566;13.450;2024-01-30T08:49:51;36.33;;;26.92;;
840;SDS011;406;48.566;13.450;2024-01-30T08:52:18;37.83;;;25.08;;
840;SDS011;406;48.566;13.450;2024-01-30T08:54:44;32.22;;;23.80;;
840;SDS011;406;48.566;13.450;2024-01-30T08:57:12;31.98;;;24.65;;
840;SDS011;406;48.566;13.450;2024-01-30T08:59:38;33.95;;;23.58;;
840;SDS011;406;48.566;13.450;2024-01-30T09:02:05;43.80;;;26.30;;
840;SDS011;406;48.566;13.450;2024-01-30T09:04:38;41.55;;;26.23;;
840;SDS011;406;48.566;13.450;2024-01-30T09:07:06;33.47;;;23.38;;
840;SDS011;406;48.566;13.450;2024-01-30T09:09:39;38.10;;;25.33;;
840;SDS011;406;48.566;13.450;2024-01-30T09:12:07;32.30;;;22.38;;
840;SDS011;406;48.566;13.450;2024-01-30T09:14:38;40.53;;;24.25;;
840;SDS011;406;48.566;13.450;2024-01-30T09:17:05;37.03;;;24.10;;
840;SDS011;406;48.566;13.450;2024-01-30T09:19:32;44.00;;;23.35;;
840;SDS011;406;48.566;13.450;2024-01-30T09:21:59;34.95;;;25.67;;
840;SDS011;406;48.566;13.450;2024-01-30T09:24:26;30.05;;;22.38;;
840;SDS011;406;48.566;13.450;2024-01-30T09:26:53;36.35;;;24.20;;
840;SDS011;406;48.566;13.450;2024-01-30T09:29:19;35.05;;;23.48;;
840;SDS011;406;48.566;13.450;2024-01-30T09:31:46;34.92;;;23.30;;
840;SDS011;406;48.566;13.450;2024-01-30T09:34:12;33.47;;;24.17;;
840;SDS011;406;48.566;13.450;2024-01-30T09:36:39;29.75;;;22.67;;
840;SDS011;406;48.566;13.450;2024-01-30T09:39:06;28.80;;;22.02;;
840;SDS011;406;48.566;13.450;2024-01-30T09:41:33;27.00;;;21.23;;
840;SDS011;406;48.566;13.450;2024-01-30T09:44:08;32.92;;;20.48;;
840;SDS011;406;48.566;13.450;2024-01-30T09:46:35;30.70;;;21.10;;
840;SDS011;406;48.566;13.450;2024-01-30T09:49:02;29.33;;;21.85;;
840;SDS011;406;48.566;13.450;2024-01-30T09:51:29;34.55;;;26.52;;
840;SDS011;406;48.566;13.450;2024-01-30T09:53:56;29.85;;;22.88;;
840;SDS011;406;48.566;13.450;2024-01-30T09:56:23;35.47;;;22.98;;
840;SDS011;406;48.566;13.450;2024-01-30T09:58:49;33.50;;;22.92;;
840;SDS011;406;48.566;13.450;2024-01-30T10:01:16;37.00;;;25.75;;
840;SDS011;406;48.566;13.450;2024-01-30T10:03:45;33.72;;;27.40;;
840;SDS011;406;48.566;13.450;2024-01-30T10:06:12;32.08;;;23.65;;
840;SDS011;406;48.566;13.450;2024-01-30T10:08:38;31.85;;;25.40;;
840;SDS011;406;48.566;13.450;2024-01-30T10:11:05;32.30;;;24.38;;
840;SDS011;406;48.566;13.450;2024-01-30T10:13:32;32.03;;;24.67;;
840;SDS011;406;48.566;13.450;2024-01-30T10:16:00;39.70;;;26.15;;
840;SDS011;406;48.566;13.450;2024-01-30T10:18:29;36.20;;;27.05;;
840;SDS011;406;48.566;13.450;2024-01-30T10:20:55;30.52;;;25.27;;
840;SDS011;406;48.566;13.450;2024-01-30T10:23:22;31.25;;;24.05;;
840;SDS011;406;48.566;13.450;2024-01-30T10:25:50;31.33;;;22.70;;
840;SDS011;406;48.566;13.450;2024-01-30T10:28:17;35.30;;;27.40;;
840;SDS011;406;48.566;13.450;2024-01-30T10:30:44;33.47;;;26.15;;
840;SDS011;406;48.566;13.450;2024-01-30T10:33:10;33.55;;;27.02;;
840;SDS011;406;48.566;13.450;2024-01-30T10:35:37;34.22;;;25.73;;
840;SDS011;406;48.566;13.450;2024-01-30T10:38:04;30.35;;;25.13;;
840;SDS011;406;48.566;13.450;2024-01-30T10:40:31;26.20;;;21.30;;
840;SDS011;406;48.566;13.450;2024-01-30T10:42:59;28.85;;;24.17;;
840;SDS011;406;48.566;13.450;2024-01-30T10:45:30;28.40;;;24.65;;
840;SDS011;406;48.566;13.450;2024-01-30T10:47:59;33.97;;;24.45;;
840;SDS011;406;48.566;13.450;2024-01-30T10:50:27;30.25;;;25.30;;
840;SDS011;406;48.566;13.450;2024-01-30T10:52:54;30.17;;;26.08;;
840;SDS011;406;48.566;13.450;2024-01-30T10:55:22;30.23;;;25.48;;
840;SDS011;406;48.566;13.450;2024-01-30T10:57:50;31.52;;;24.45;;
840;SDS011;406;48.566;13.450;2024-01-30T11:00:17;36.00;;;21.60;;
840;SDS011;406;48.566;13.450;2024-01-30T11:02:46;29.10;;;24.60;;
840;SDS011;406;48.566;13.450;2024-01-30T11:05:13;30.48;;;27.15;;
840;SDS011;406;48.566;13.450;2024-01-30T11:07:42;31.10;;;22.43;;
840;SDS011;406;48.566;13.450;2024-01-30T11:10:09;32.43;;;23.60;;
840;SDS011;406;48.566;13.450;2024-01-30T11:12:39;28.42;;;23.17;;
840;SDS011;406;48.566;13.450;2024-01-30T11:15:14;27.20;;;20.45;;
840;SDS011;406;48.566;13.450;2024-01-30T11:22:49;30.57;;;21.57;;
840;SDS011;406;48.566;13.450;2024-01-30T11:25:18;30.50;;;20.70;;
840;SDS011;406;48.566;13.450;2024-01-30T11:27:46;29.13;;;23.40;;
840;SDS011;406;48.566;13.450;2024-01-30T11:30:23;28.60;;;23.70;;
840;SDS011;406;48.566;13.450;2024-01-30T11:32:58;29.50;;;21.00;;
840;SDS011;406;48.566;13.450;2024-01-30T11:35:25;29.70;;;20.33;;
840;SDS011;406;48.566;13.450;2024-01-30T11:37:52;27.50;;;22.17;;
840;SDS011;406;48.566;13.450;2024-01-30T11:40:18;26.60;;;22.87;;
840;SDS011;406;48.566;13.450;2024-01-30T11:42:45;24.27;;;20.10;;
840;SDS011;406;48.566;13.450;2024-01-30T11:45:13;28.42;;;22.52;;
840;SDS011;406;48.566;13.450;2024-01-30T11:47:39;34.42;;;23.52;;
840;SDS011;406;48.566;13.450;2024-01-30T11:50:10;26.07;;;19.37;;
840;SDS011;406;48.566;13.450;2024-01-30T11:52:37;27.30;;;19.27;;
840;SDS011;406;48.566;13.450;2024-01-30T11:55:04;29.43;;;23.00;;
840;SDS011;406;48.566;13.450;2024-01-30T11:57:31;30.53;;;21.77;;
840;SDS011;406;48.566;13.450;2024-01-30T11:59:57;30.40;;;22.97;;
840;SDS011;406;48.566;13.450;2024-01-30T12:02:24;27.67;;;21.13;;
840;SDS011;406;48.566;13.450;2024-01-30T12:04:50;30.70;;;22.73;;
840;SDS011;406;48.566;13.450;2024-01-30T12:07:17;29.57;;;21.93;;
840;SDS011;406;48.566;13.450;2024-01-30T12:09:52;27.20;;;22.50;;
840;SDS011;406;48.566;13.450;2024-01-30T12:12:22;28.43;;;20.57;;
840;SDS011;406;48.566;13.450;2024-01-30T12:14:49;25.80;;;22.50;;
840;SDS011;406;48.566;13.450;2024-01-30T12:20:06;24.80;;;21.83;;
840;SDS011;406;48.566;13.450;2024-01-30T12:22:37;28.97;;;19.77;;
840;SDS011;406;48.566;13.450;2024-01-30T12:25:05;26.10;;;21.23;;
840;SDS011;406;48.566;13.450;2024-01-30T12:27:34;28.30;;;22.33;;
840;SDS011;406;48.566;13.450;2024-01-30T12:30:04;25.27;;;20.17;;
840;SDS011;406;48.566;13.450;2024-01-30T12:32:31;25.37;;;20.67;;
840;SDS011;406;48.566;13.450;2024-01-30T12:34:58;26.60;;;20.07;;
840;SDS011;406;48.566;13.450;2024-01-30T12:37:27;30.60;;;18.77;;
840;SDS011;406;48.566;13.450;2024-01-30T12:39:55;24.80;;;21.50;;
840;SDS011;406;48.566;13.450;2024-01-30T12:42:23;28.43;;;19.70;;
840;SDS011;406;48.566;13.450;2024-01-30T12:44:49;28.40;;;19.40;;
840;SDS011;406;48.566;13.450;2024-01-30T12:47:16;27.83;;;20.70;;
840;SDS011;406;48.566;13.450;2024-01-30T12:49:43;26.43;;;21.80;;
840;SDS011;406;48.566;13.450;2024-01-30T12:52:11;27.03;;;21.07;;
840;SDS011;406;48.566;13.450;2024-01-30T12:54:38;26.83;;;22.80;;
840;SDS011;406;48.566;13.450;2024-01-30T12:57:05;31.20;;;23.17;;
840;SDS011;406;48.566;13.450;2024-01-30T12:59:31;27.17;;;21.47;;
840;SDS011;406;48.566;13.450;2024-01-30T13:01:59;28.93;;;21.23;;
840;SDS011;406;48.566;13.450;2024-01-30T13:04:27;32.67;;;23.27;;
840;SDS011;406;48.566;13.450;2024-01-30T13:06:53;25.03;;;20.97;;
840;SDS011;406;48.566;13.450;2024-01-30T13:09:20;27.63;;;22.37;;
840;SDS011;406;48.566;13.450;2024-01-30T13:11:47;28.93;;;23.07;;
840;SDS011;406;48.566;13.450;2024-01-30T13:14:13;30.47;;;22.30;;
840;SDS011;406;48.566;13.450;2024-01-30T13:16:40;29.50;;;23.23;;
840;SDS011;406;48.566;13.450;2024-01-30T13:19:07;28.23;;;23.03;;
840;SDS011;406;48.566;13.450;2024-01-30T13:21:33;27.77;;;21.63;;
840;SDS011;406;48.566;13.450;2024-01-30T13:24:00;25.63;;;20.80;;
840;SDS011;406;48.566;13.450;2024-01-30T13:26:26;27.37;;;21.43;;
840;SDS011;406;48.566;13.450;2024-01-30T13:28:53;28.07;;;22.00;;
840;SDS011;406;48.566;13.450;2024-01-30T13:31:32;27.60;;;22.60;;
840;SDS011;406;48.566;13.450;2024-01-30T13:33:59;29.27;;;22.60;;
840;SDS011;406;48.566;13.450;2024-01-30T13:36:25;30.23;;;23.63;;
840;SDS011;406;48.566;13.450;2024-01-30T13:38:52;31.13;;;24.93;;
840;SDS011;406;48.566;13.450;2024-01-30T13:41:18;29.73;;;23.03;;
840;SDS011;406;48.566;13.450;2024-01-30T13:43:47;30.60;;;22.87;;
840;SDS011;406;48.566;13.450;2024-01-30T13:46:13;29.83;;;23.67;;
840;SDS011;406;48.566;13.450;2024-01-30T13:48:40;39.90;;;26.00;;
840;SDS011;406;48.566;13.450;2024-01-30T13:51:06;31.87;;;25.63;;
840;SDS011;406;48.566;13.450;2024-01-30T13:53:33;30.83;;;23.83;;
840;SDS011;406;48.566;13.450;2024-01-30T13:55:59;32.20;;;25.97;;
840;SDS011;406;48.566;13.450;2024-01-30T13:58:26;30.10;;;23.67;;
840;SDS011;406;48.566;13.450;2024-01-30T14:00:53;32.10;;;25.20;;
840;SDS011;406;48.566;13.450;2024-01-30T14:03:20;30.70;;;25.00;;
840;SDS011;406;48.566;13.450;2024-01-30T14:05:47;32.93;;;24.33;;
840;SDS011;406;48.566;13.450;2024-01-30T14:08:13;33.10;;;25.40;;
840;SDS011;406;48.566;13.450;2024-01-30T14:10:40;31.27;;;24.43;;
840;SDS011;406;48.566;13.450;2024-01-30T14:13:07;33.30;;;24.77;;
840;SDS011;406;48.566;13.450;2024-01-30T14:15:33;35.57;;;25.17;;
840;SDS011;406;48.566;13.450;2024-01-30T14:18:00;30.20;;;24.83;;
840;SDS011;406;48.566;13.450;2024-01-30T14:20:26;33.90;;;26.20;;
840;SDS011;406;48.566;13.450;2024-01-30T14:22:54;32.47;;;27.33;;
840;SDS011;406;48.566;13.450;2024-01-30T14:25:22;31.83;;;24.30;;
840;SDS011;406;48.566;13.450;2024-01-30T14:27:49;32.67;;;25.60;;
840;SDS011;406;48.566;13.450;2024-01-30T14:30:16;33.03;;;26.27;;
840;SDS011;406;48.566;13.450;2024-01-30T14:32:43;29.80;;;23.73;;
840;SDS011;406;48.566;13.450;2024-01-30T14:35:11;32.17;;;24.80;;
840;SDS011;406;48.566;13.450;2024-01-30T14:37:38;35.87;;;26.50;;
840;SDS011;406;48.566;13.450;2024-01-30T14:40:04;35.53;;;26.50;;
840;SDS011;406;48.566;13.450;2024-01-30T14:42:33;30.50;;;23.90;;
840;SDS011;406;48.566;13.450;2024-01-30T14:45:01;34.57;;;25.57;;
840;SDS011;406;48.566;13.450;2024-01-30T14:47:30;35.40;;;26.63;;
840;SDS011;406;48.566;13.450;2024-01-30T14:49:57;32.97;;;24.73;;
840;SDS011;406;48.566;13.450;2024-01-30T14:52:24;35.20;;;26.10;;
840;SDS011;406;48.566;13.450;2024-01-30T14:54:51;36.73;;;25.80;;
840;SDS011;406;48.566;13.450;2024-01-30T14:57:17;35.00;;;25.00;;
840;SDS011;406;48.566;13.450;2024-01-30T14:59:44;35.90;;;25.80;;
840;SDS011;406;48.566;13.450;2024-01-30T15:02:10;38.30;;;28.10;;
840;SDS011;406;48.566;13.450;2024-01-30T15:04:37;38.63;;;27.33;;
840;SDS011;406;48.566;13.450;2024-01-30T15:07:04;35.30;;;27.00;;